createdAt,value
2022-08-19T00:00:51.145Z,14.20
2022-08-19T00:02:23.195Z,13.10
2022-08-19T00:03:54.904Z,13.33
2022-08-19T00:05:26.754Z,14.10
2022-08-19T00:07:01.494Z,14.17
2022-08-19T00:08:33.411Z,14.03
2022-08-19T00:10:07.804Z,14.50
2022-08-19T00:11:40.185Z,13.90
2022-08-19T00:13:11.879Z,13.33
2022-08-19T00:14:43.627Z,13.70
2022-08-19T00:16:16.053Z,14.70
2022-08-19T00:17:48.444Z,13.77
2022-08-19T00:19:20.169Z,13.37
2022-08-19T00:20:51.873Z,15.10
2022-08-19T00:22:23.568Z,14.33
2022-08-19T00:23:58.932Z,14.77
2022-08-19T00:25:30.853Z,15.10
2022-08-19T00:27:26.087Z,15.20
2022-08-19T00:28:57.652Z,13.70
2022-08-19T00:30:29.516Z,15.33
2022-08-19T00:32:01.456Z,14.60
2022-08-19T00:33:33.673Z,15.17
2022-08-19T00:35:05.892Z,15.47
2022-08-19T00:36:38.452Z,15.03
2022-08-19T00:38:10.185Z,15.37
2022-08-19T00:39:41.901Z,14.77
2022-08-19T00:41:16.128Z,14.47
2022-08-19T00:42:48.159Z,15.57
2022-08-19T00:44:26.848Z,15.20
2022-08-19T00:45:58.992Z,15.30
2022-08-19T00:47:30.756Z,16.33
2022-08-19T00:49:07.409Z,16.40
2022-08-19T00:50:52.107Z,16.73
2022-08-19T00:52:30.983Z,16.53
2022-08-19T00:54:04.266Z,16.10
2022-08-19T00:55:36.032Z,16.17
2022-08-19T00:57:13.606Z,16.03
2022-08-19T00:58:45.601Z,16.30
2022-08-19T01:00:19.890Z,16.10
2022-08-19T01:01:51.859Z,15.10
2022-08-19T01:03:23.841Z,16.37
2022-08-19T01:04:56.457Z,16.77
2022-08-19T01:06:28.385Z,17.27
2022-08-19T01:08:03.933Z,18.20
2022-08-19T01:09:35.701Z,16.03
2022-08-19T01:11:08.980Z,16.80
2022-08-19T01:12:42.235Z,17.37
2022-08-19T01:14:15.399Z,17.07
2022-08-19T01:15:54.813Z,17.30
2022-08-19T01:17:26.703Z,17.80
2022-08-19T01:18:58.477Z,17.17
2022-08-19T01:20:30.214Z,18.80
2022-08-19T01:22:14.590Z,18.73
2022-08-19T01:23:48.754Z,18.90
2022-08-19T01:25:25.070Z,17.30
2022-08-19T01:26:58.786Z,19.10
2022-08-19T01:28:39.765Z,18.80
2022-08-19T01:30:16.828Z,18.80
2022-08-19T01:31:51.271Z,19.10
2022-08-19T01:33:22.974Z,19.60
2022-08-19T01:34:54.674Z,21.70
2022-08-19T01:36:48.260Z,19.27
2022-08-19T01:38:27.482Z,19.63
2022-08-19T01:39:59.290Z,20.73
2022-08-19T01:41:31.230Z,19.77
2022-08-19T01:43:04.415Z,19.83
2022-08-19T01:44:37.187Z,22.13
2022-08-19T01:46:08.999Z,21.80
2022-08-19T01:47:41.211Z,20.80
2022-08-19T01:49:12.926Z,21.47
2022-08-19T01:50:44.657Z,21.23
2022-08-19T01:52:16.370Z,22.80
2022-08-19T01:53:49.398Z,22.17
2022-08-19T01:55:24.727Z,22.77
2022-08-19T01:57:04.455Z,22.50
2022-08-19T01:58:41.859Z,23.70
2022-08-19T02:00:16.808Z,24.43
2022-08-19T02:01:51.737Z,23.27
2022-08-19T02:03:24.004Z,25.13
2022-08-19T02:04:55.732Z,23.70
2022-08-19T02:06:28.594Z,23.60
2022-08-19T02:08:00.381Z,26.57
2022-08-19T02:09:33.152Z,26.57
2022-08-19T02:11:06.260Z,25.70
2022-08-19T02:12:38.224Z,26.83
2022-08-19T02:14:09.944Z,27.90
2022-08-19T02:15:41.900Z,29.40
2022-08-19T02:17:13.645Z,28.20
2022-08-19T02:18:46.459Z,28.53
2022-08-19T02:20:18.498Z,26.60
2022-08-19T02:21:50.236Z,28.10
2022-08-19T02:23:25.151Z,29.33
2022-08-19T02:24:56.836Z,27.03
2022-08-19T02:26:28.989Z,26.83
2022-08-19T02:28:00.662Z,26.93
2022-08-19T02:29:32.765Z,27.07
2022-08-19T02:31:09.939Z,28.80
2022-08-19T02:32:44.731Z,30.60
2022-08-19T02:34:17.562Z,28.50
2022-08-19T02:35:49.246Z,29.23
2022-08-19T02:37:39.495Z,30.17
2022-08-19T02:39:11.428Z,28.53
2022-08-19T02:40:51.427Z,30.00
2022-08-19T02:42:23.331Z,29.57
2022-08-19T02:44:28.524Z,31.70
2022-08-19T02:45:50.711Z,31.53
2022-08-19T02:47:22.462Z,31.53
2022-08-19T02:48:57.950Z,31.80
2022-08-19T02:50:29.920Z,34.50
2022-08-19T02:52:01.669Z,32.17
2022-08-19T02:53:34.000Z,32.30
2022-08-19T02:55:06.528Z,33.63
2022-08-19T02:56:40.425Z,33.03
2022-08-19T02:58:12.464Z,34.83
2022-08-19T02:59:44.137Z,32.50
2022-08-19T03:01:26.458Z,34.17
2022-08-19T03:03:01.392Z,32.60
2022-08-19T03:04:33.417Z,31.87
2022-08-19T03:06:11.381Z,32.50
2022-08-19T03:07:43.137Z,34.17
2022-08-19T03:09:15.701Z,31.47
2022-08-19T03:10:48.744Z,33.10
2022-08-19T03:12:20.476Z,32.57
2022-08-19T03:13:54.264Z,34.33
2022-08-19T03:15:26.068Z,34.37
2022-08-19T03:16:58.428Z,34.27
2022-08-19T03:18:30.116Z,34.03
2022-08-19T03:20:02.171Z,33.97
2022-08-19T03:21:35.299Z,33.03
2022-08-19T03:23:07.279Z,35.57
2022-08-19T03:24:39.636Z,35.10
2022-08-19T03:26:16.367Z,33.37
2022-08-19T03:27:49.808Z,35.40
2022-08-19T03:29:30.419Z,35.40
2022-08-19T03:31:44.190Z,34.97
2022-08-19T03:33:04.252Z,35.43
2022-08-19T03:34:38.569Z,35.20
2022-08-19T03:36:19.712Z,36.87
2022-08-19T03:37:51.830Z,37.40
2022-08-19T03:39:25.120Z,37.33
2022-08-19T03:40:56.792Z,37.00
2022-08-19T03:42:38.169Z,35.90
2022-08-19T03:44:23.050Z,37.87
2022-08-19T03:46:05.876Z,37.33
2022-08-19T03:47:38.683Z,37.53
2022-08-19T03:49:10.473Z,36.90
2022-08-19T03:50:42.243Z,38.10
2022-08-19T03:52:15.070Z,36.67
2022-08-19T03:53:47.855Z,37.10
2022-08-19T03:55:20.084Z,37.00
2022-08-19T03:56:55.644Z,36.80
2022-08-19T03:58:29.532Z,34.93
2022-08-19T04:00:13.031Z,36.13
2022-08-19T04:01:46.577Z,35.53
2022-08-19T04:03:19.635Z,37.47
2022-08-19T04:04:55.843Z,36.40
2022-08-19T04:06:30.916Z,35.57
2022-08-19T04:08:02.801Z,36.77
2022-08-19T04:09:37.439Z,37.57
2022-08-19T04:11:17.833Z,36.20
2022-08-19T04:12:50.030Z,38.00
2022-08-19T04:14:26.759Z,37.50
2022-08-19T04:15:58.493Z,36.93
2022-08-19T04:17:30.277Z,37.50
2022-08-19T04:19:05.313Z,36.13
2022-08-19T04:20:46.036Z,36.83
2022-08-19T04:22:17.821Z,38.80
2022-08-19T04:23:50.141Z,38.20
2022-08-19T04:25:23.584Z,37.47
2022-08-19T04:26:55.417Z,37.53
2022-08-19T04:28:27.183Z,40.03
2022-08-19T04:29:58.909Z,36.90
2022-08-19T04:31:33.265Z,39.97
2022-08-19T04:33:05.366Z,39.33
2022-08-19T04:35:02.195Z,38.47
2022-08-19T04:36:36.422Z,39.57
2022-08-19T04:38:08.781Z,39.10
2022-08-19T04:40:02.226Z,39.20
2022-08-19T04:41:52.992Z,37.80
2022-08-19T04:43:24.715Z,38.20
2022-08-19T04:44:56.841Z,36.60
2022-08-19T04:46:40.653Z,37.67
2022-08-19T04:48:27.881Z,38.50
2022-08-19T04:50:00.287Z,37.10
2022-08-19T04:51:33.939Z,37.20
2022-08-19T04:53:06.085Z,38.27
2022-08-19T04:54:39.348Z,36.87
2022-08-19T04:56:16.577Z,36.03
2022-08-19T04:57:48.454Z,37.00
2022-08-19T04:59:21.069Z,36.23
2022-08-19T05:00:53.846Z,36.17
2022-08-19T05:02:26.076Z,35.07
2022-08-19T05:03:59.996Z,35.07
2022-08-19T05:05:32.484Z,35.27
2022-08-19T05:07:17.230Z,34.57
2022-08-19T05:08:49.700Z,35.30
2022-08-19T05:10:21.473Z,35.20
2022-08-19T05:11:54.316Z,34.43
2022-08-19T05:13:26.285Z,33.93
2022-08-19T05:14:59.144Z,34.57
2022-08-19T05:16:30.916Z,32.70
2022-08-19T05:18:25.559Z,33.50
2022-08-19T05:20:16.064Z,33.70
2022-08-19T05:22:06.656Z,33.93
2022-08-19T05:23:38.550Z,34.23
2022-08-19T05:25:14.202Z,33.83
2022-08-19T05:26:48.575Z,33.60
2022-08-19T05:28:24.359Z,34.87
2022-08-19T05:29:56.162Z,33.30
2022-08-19T05:31:27.962Z,32.20
2022-08-19T05:32:59.655Z,32.77
2022-08-19T05:34:32.051Z,34.60
2022-08-19T05:36:04.268Z,31.87
2022-08-19T05:37:36.143Z,34.10
2022-08-19T05:39:10.651Z,32.33
2022-08-19T05:40:50.308Z,33.50
2022-08-19T05:42:23.695Z,33.07
2022-08-19T05:43:56.879Z,32.93
2022-08-19T05:45:28.839Z,31.30
2022-08-19T05:47:02.986Z,33.43
2022-08-19T05:48:36.191Z,33.00
2022-08-19T05:50:08.332Z,33.60
2022-08-19T05:51:40.355Z,32.30
2022-08-19T05:53:12.956Z,32.97
2022-08-19T05:54:45.923Z,33.70
2022-08-19T05:56:21.205Z,33.60
2022-08-19T05:57:52.886Z,32.17
2022-08-19T05:59:25.068Z,32.70
2022-08-19T06:01:05.220Z,33.90
2022-08-19T06:02:37.203Z,33.53
2022-08-19T06:04:09.248Z,34.03
2022-08-19T06:05:51.543Z,34.87
2022-08-19T06:07:24.131Z,34.47
2022-08-19T06:08:56.203Z,34.13
2022-08-19T06:10:29.305Z,33.40
2022-08-19T06:12:02.131Z,33.23
2022-08-19T06:13:34.144Z,33.43
2022-08-19T06:15:10.448Z,35.67
2022-08-19T06:16:44.319Z,35.30
2022-08-19T06:18:16.427Z,34.40
2022-08-19T06:19:48.188Z,35.70
2022-08-19T06:21:28.152Z,36.43
2022-08-19T06:23:00.435Z,36.10
2022-08-19T06:24:32.656Z,36.70
2022-08-19T06:26:05.053Z,35.83
2022-08-19T06:27:41.988Z,38.97
2022-08-19T06:29:24.685Z,39.87
2022-08-19T06:30:56.436Z,40.40
2022-08-19T06:32:28.132Z,42.20
2022-08-19T06:34:01.876Z,42.60
2022-08-19T06:35:40.399Z,41.30
2022-08-19T06:37:12.661Z,38.80
2022-08-19T06:38:44.424Z,41.63
2022-08-19T06:40:17.685Z,40.57
2022-08-19T06:41:55.458Z,39.63
2022-08-19T06:43:29.192Z,40.50
2022-08-19T06:45:09.261Z,42.57
2022-08-19T06:46:42.910Z,43.70
2022-08-19T06:48:14.615Z,44.20
2022-08-19T06:49:46.380Z,41.43
2022-08-19T06:51:21.665Z,43.97
2022-08-19T06:52:53.617Z,42.23
2022-08-19T06:54:30.900Z,41.83
2022-08-19T06:56:03.485Z,41.83
2022-08-19T06:57:36.686Z,42.67
2022-08-19T06:59:13.652Z,46.00
2022-08-19T07:00:45.544Z,43.27
2022-08-19T07:03:53.929Z,44.03
2022-08-19T07:05:25.979Z,45.93
2022-08-19T07:07:20.898Z,44.33
2022-08-19T07:08:53.274Z,46.33
2022-08-19T07:10:28.056Z,47.73
2022-08-19T07:11:59.802Z,43.47
2022-08-19T07:13:33.478Z,44.57
2022-08-19T07:15:11.964Z,45.10
2022-08-19T07:16:43.652Z,46.83
2022-08-19T07:18:15.437Z,46.53
2022-08-19T07:19:47.148Z,44.83
2022-08-19T07:21:27.374Z,47.33
2022-08-19T07:23:01.335Z,47.50
2022-08-19T07:24:33.766Z,46.80
2022-08-19T07:26:12.814Z,48.63
2022-08-19T07:27:46.439Z,47.00
2022-08-19T07:29:24.100Z,48.30
2022-08-19T07:30:57.498Z,47.00
2022-08-19T07:32:29.245Z,46.73
2022-08-19T07:34:00.928Z,48.00
2022-08-19T07:35:33.077Z,48.87
2022-08-19T07:37:06.657Z,46.37
2022-08-19T07:38:40.596Z,47.03
2022-08-19T07:40:13.337Z,45.70
2022-08-19T07:41:45.868Z,49.77
2022-08-19T07:43:18.437Z,47.80
2022-08-19T07:44:51.868Z,45.90
2022-08-19T07:46:23.586Z,47.87
2022-08-19T07:47:55.674Z,48.80
2022-08-19T07:49:28.445Z,44.90
2022-08-19T07:51:03.981Z,47.73
2022-08-19T07:52:37.089Z,47.27
2022-08-19T07:54:08.833Z,45.50
2022-08-19T07:55:43.896Z,43.27
2022-08-19T07:57:16.311Z,44.70
2022-08-19T07:58:50.573Z,44.53
2022-08-19T08:00:26.161Z,43.53
2022-08-19T08:02:00.483Z,43.70
2022-08-19T08:03:56.771Z,43.57
2022-08-19T08:05:47.146Z,41.30
2022-08-19T08:07:37.629Z,39.60
2022-08-19T08:10:57.026Z,38.60
2022-08-19T08:12:38.158Z,37.00
2022-08-19T08:14:29.466Z,38.20
2022-08-19T08:16:02.993Z,36.20
2022-08-19T08:17:49.570Z,36.07
2022-08-19T08:19:25.852Z,35.60
2022-08-19T08:20:58.702Z,34.07
2022-08-19T08:22:49.794Z,36.00
2022-08-19T08:24:21.646Z,34.90
2022-08-19T08:25:55.885Z,33.00
2022-08-19T08:27:31.991Z,32.27
2022-08-19T08:29:12.243Z,32.13
2022-08-19T08:30:46.560Z,31.40
2022-08-19T08:32:18.432Z,31.80
2022-08-19T08:33:50.416Z,31.50
2022-08-19T08:35:23.931Z,32.50
2022-08-19T08:36:58.305Z,31.97
2022-08-19T08:38:30.355Z,33.37
2022-08-19T08:40:33.151Z,33.93
2022-08-19T08:42:27.083Z,29.67
2022-08-19T08:43:59.163Z,28.63
2022-08-19T08:45:33.590Z,27.10
2022-08-19T08:47:19.259Z,25.37
2022-08-19T08:49:21.258Z,24.47
2022-08-19T08:50:55.639Z,24.93
2022-08-19T08:52:49.449Z,24.03
2022-08-19T08:54:31.639Z,24.00
2022-08-19T08:56:09.384Z,25.30
2022-08-19T08:57:55.444Z,24.43
2022-08-19T08:59:33.282Z,23.90
2022-08-19T09:01:05.225Z,23.30
2022-08-19T09:02:37.328Z,23.77
2022-08-19T09:04:09.244Z,23.20
2022-08-19T09:06:06.142Z,21.50
2022-08-19T09:07:48.951Z,21.93
2022-08-19T09:09:42.720Z,21.23
2022-08-19T09:11:45.055Z,18.53
2022-08-19T09:13:42.773Z,16.67
2022-08-19T09:15:17.044Z,15.80
2022-08-19T09:16:50.387Z,14.13
2022-08-19T09:18:22.071Z,14.93
2022-08-19T09:19:58.674Z,14.73
2022-08-19T09:21:33.371Z,15.40
2022-08-19T09:23:06.172Z,13.90
2022-08-19T09:24:37.864Z,14.00
2022-08-19T09:26:14.357Z,14.03
2022-08-19T09:27:49.983Z,12.93
2022-08-19T09:29:22.550Z,13.00
2022-08-19T09:30:54.447Z,12.60
2022-08-19T09:32:27.378Z,13.30
2022-08-19T09:34:00.228Z,13.43
2022-08-19T09:35:33.711Z,12.73
2022-08-19T09:37:25.431Z,12.83
2022-08-19T09:38:57.343Z,13.83
2022-08-19T09:40:35.453Z,13.03
2022-08-19T09:42:16.692Z,13.27
2022-08-19T09:44:02.576Z,11.90
2022-08-19T09:45:34.384Z,12.27
2022-08-19T09:47:07.812Z,12.70
2022-08-19T09:48:43.346Z,11.90
2022-08-19T09:50:16.370Z,13.43
2022-08-19T09:51:52.509Z,13.20
2022-08-19T09:53:25.385Z,14.23
2022-08-19T09:54:57.533Z,14.60
2022-08-19T09:56:31.024Z,13.67
2022-08-19T09:58:04.427Z,14.37
2022-08-19T09:59:36.389Z,14.10
2022-08-19T10:01:10.537Z,15.00
2022-08-19T10:02:42.373Z,14.60
2022-08-19T10:04:20.593Z,13.73
2022-08-19T10:05:55.240Z,13.30
2022-08-19T10:07:36.015Z,12.43
2022-08-19T10:09:10.739Z,13.30
2022-08-19T10:10:46.670Z,13.60
2022-08-19T10:12:20.164Z,13.77
2022-08-19T10:13:52.124Z,13.10
2022-08-19T10:15:29.077Z,14.07
2022-08-19T10:17:17.544Z,14.60
2022-08-19T10:18:54.163Z,14.93
2022-08-19T10:20:31.069Z,13.80
2022-08-19T10:22:14.551Z,14.70
2022-08-19T10:23:49.385Z,13.10
2022-08-19T10:25:22.369Z,13.60
2022-08-19T10:26:55.775Z,14.20
2022-08-19T10:28:28.692Z,14.60
2022-08-19T10:30:02.240Z,13.83
2022-08-19T10:32:02.666Z,14.00
2022-08-19T10:33:39.309Z,13.27
2022-08-19T10:35:21.794Z,13.30
2022-08-19T10:36:56.195Z,14.70
2022-08-19T10:38:31.870Z,13.37
2022-08-19T10:40:07.793Z,13.27
2022-08-19T10:41:40.555Z,13.37
2022-08-19T10:43:12.336Z,13.33
2022-08-19T10:44:44.282Z,13.60
2022-08-19T10:46:16.940Z,14.20
2022-08-19T10:47:48.883Z,12.40
2022-08-19T10:49:20.706Z,13.10
2022-08-19T10:51:10.987Z,13.00
2022-08-19T10:52:54.422Z,11.70
2022-08-19T10:54:48.500Z,11.20
2022-08-19T10:56:39.502Z,11.13
2022-08-19T10:58:16.287Z,12.00
2022-08-19T10:59:48.782Z,11.37
2022-08-19T11:01:21.266Z,12.40
2022-08-19T11:02:53.466Z,10.83
2022-08-19T11:04:28.942Z,10.20
2022-08-19T11:06:04.028Z,10.17
2022-08-19T11:07:35.921Z,9.57
2022-08-19T11:09:08.306Z,8.70
2022-08-19T11:10:43.614Z,8.50
2022-08-19T11:12:22.429Z,10.27
2022-08-19T11:13:54.632Z,10.97
2022-08-19T11:15:29.487Z,10.37
2022-08-19T11:17:02.885Z,9.60
2022-08-19T11:18:40.239Z,10.40
2022-08-19T11:20:15.860Z,11.60
2022-08-19T11:21:49.426Z,9.93
2022-08-19T11:23:21.462Z,9.77
2022-08-19T11:24:53.146Z,8.23
2022-08-19T11:26:25.243Z,8.43
2022-08-19T11:27:56.960Z,8.23
2022-08-19T11:29:30.038Z,8.30
2022-08-19T11:31:02.242Z,8.70
2022-08-19T11:32:34.670Z,7.23
2022-08-19T11:34:09.041Z,7.50
2022-08-19T11:35:42.053Z,7.25
2022-08-19T11:37:13.897Z,7.40
2022-08-19T11:38:52.427Z,6.40
2022-08-19T11:40:24.186Z,5.90
2022-08-19T11:41:58.148Z,6.80
2022-08-19T11:43:34.293Z,6.73
2022-08-19T11:45:08.928Z,6.60
2022-08-19T11:46:42.182Z,7.90
2022-08-19T11:48:13.899Z,7.20
2022-08-19T11:49:47.091Z,7.10
2022-08-19T11:51:23.436Z,7.20
2022-08-19T11:52:56.562Z,6.73
2022-08-19T11:54:28.288Z,5.73
2022-08-19T11:56:00.031Z,7.17
2022-08-19T11:57:32.395Z,6.77
2022-08-19T11:59:04.252Z,6.50
2022-08-19T12:00:37.460Z,6.40
2022-08-19T12:02:09.188Z,6.50
2022-08-19T12:03:41.529Z,5.83
2022-08-19T12:05:13.417Z,5.43
2022-08-19T12:06:45.316Z,6.17
2022-08-19T12:08:17.889Z,6.73
2022-08-19T12:09:49.646Z,7.50
2022-08-19T12:11:21.572Z,6.57
2022-08-19T12:12:58.717Z,6.90
2022-08-19T12:14:32.806Z,6.00
2022-08-19T12:16:17.444Z,5.50
2022-08-19T12:17:49.237Z,5.70
2022-08-19T12:19:22.384Z,5.60
2022-08-19T12:20:58.036Z,6.40
2022-08-19T12:22:29.886Z,5.57
2022-08-19T12:24:03.039Z,6.00
2022-08-19T12:25:35.396Z,6.10
2022-08-19T12:27:12.562Z,6.50
2022-08-19T12:28:44.881Z,6.00
2022-08-19T12:30:16.798Z,5.80
2022-08-19T12:31:48.528Z,6.03
2022-08-19T12:33:24.869Z,5.50
2022-08-19T12:34:56.624Z,5.20
2022-08-19T12:36:28.321Z,5.40
2022-08-19T12:38:03.857Z,5.53
2022-08-19T12:39:43.002Z,4.60
2022-08-19T12:41:18.600Z,5.40
2022-08-19T12:42:50.800Z,4.90
2022-08-19T12:44:29.288Z,6.37
2022-08-19T12:46:05.186Z,5.30
2022-08-19T12:47:38.032Z,5.17
2022-08-19T12:49:17.490Z,5.50
2022-08-19T12:51:13.125Z,5.53
2022-08-19T12:52:44.866Z,5.90
2022-08-19T12:54:16.620Z,6.13
2022-08-19T12:55:48.327Z,5.77
2022-08-19T12:57:19.997Z,5.63
2022-08-19T12:58:53.154Z,5.57
2022-08-19T13:00:25.352Z,5.00
2022-08-19T13:01:57.177Z,5.00
2022-08-19T13:03:30.453Z,4.90
2022-08-19T13:05:02.133Z,5.17
2022-08-19T13:06:38.154Z,5.23
2022-08-19T13:08:09.854Z,5.50
2022-08-19T13:09:45.554Z,5.43
2022-08-19T13:11:19.593Z,5.70
2022-08-19T13:12:54.122Z,5.40
2022-08-19T13:14:27.061Z,5.80
2022-08-19T13:16:06.742Z,5.57
2022-08-19T13:17:39.830Z,5.70
2022-08-19T13:19:12.957Z,4.83
2022-08-19T13:20:46.772Z,5.10
2022-08-19T13:22:25.870Z,5.07
2022-08-19T13:23:57.846Z,5.47
2022-08-19T13:25:29.589Z,4.50
2022-08-19T13:27:02.130Z,4.80
2022-08-19T13:28:53.777Z,4.63
2022-08-19T13:30:44.293Z,4.63
2022-08-19T13:32:34.794Z,4.37
2022-08-19T13:34:08.225Z,4.80
2022-08-19T13:35:51.110Z,4.80
2022-08-19T13:37:41.888Z,4.73
2022-08-19T13:39:13.691Z,4.43
2022-08-19T13:40:46.018Z,4.30
2022-08-19T13:42:19.609Z,3.83
2022-08-19T13:43:51.798Z,4.50
2022-08-19T13:45:25.954Z,4.20
2022-08-19T13:52:30.037Z,4.20
2022-08-19T13:54:01.828Z,4.47
2022-08-19T13:55:33.881Z,4.00
2022-08-19T13:57:05.757Z,4.20
2022-08-19T13:58:38.439Z,4.40
2022-08-19T14:00:18.617Z,4.47
2022-08-19T14:01:50.826Z,4.90
2022-08-19T14:03:22.638Z,4.03
2022-08-19T14:04:54.882Z,4.53
2022-08-19T14:06:26.777Z,4.10
2022-08-19T14:07:59.933Z,4.57
2022-08-19T14:09:32.305Z,4.17
2022-08-19T14:11:06.281Z,4.23
2022-08-19T14:12:39.065Z,4.77
2022-08-19T14:14:15.829Z,4.77
2022-08-19T14:15:48.315Z,4.80
2022-08-19T14:17:20.023Z,4.43
2022-08-19T14:18:52.451Z,5.30
2022-08-19T14:20:26.384Z,4.70
2022-08-19T14:21:58.841Z,5.30
2022-08-19T14:23:32.720Z,5.77
2022-08-19T14:25:06.000Z,5.97
2022-08-19T14:26:37.955Z,6.37
2022-08-19T14:28:10.290Z,7.03
2022-08-19T14:29:42.008Z,6.60
2022-08-19T14:31:19.284Z,7.40
2022-08-19T14:32:51.037Z,7.53
2022-08-19T14:34:23.078Z,7.77
2022-08-19T14:35:54.799Z,7.30
2022-08-19T14:37:31.902Z,7.30
2022-08-19T14:39:10.444Z,6.30
2022-08-19T14:40:42.952Z,6.00
2022-08-19T14:42:15.710Z,7.03
2022-08-19T14:43:50.635Z,7.47
2022-08-19T14:45:22.491Z,7.87
2022-08-19T14:46:54.556Z,8.23
2022-08-19T14:48:29.139Z,8.07
2022-08-19T14:50:00.952Z,8.07
2022-08-19T14:51:36.831Z,8.17
2022-08-19T14:53:12.275Z,7.00
2022-08-19T14:54:45.201Z,7.83
2022-08-19T14:56:20.748Z,8.10
2022-08-19T14:57:52.506Z,7.27
2022-08-19T14:59:24.788Z,7.60
2022-08-19T15:00:56.935Z,7.67
2022-08-19T15:02:34.725Z,7.40
2022-08-19T15:04:07.280Z,7.20
2022-08-19T15:05:38.989Z,6.83
2022-08-19T15:07:10.822Z,7.10
2022-08-19T15:08:44.781Z,7.97
2022-08-19T15:10:17.284Z,7.30
2022-08-19T15:11:49.789Z,7.60
2022-08-19T15:13:22.124Z,7.47
2022-08-19T15:14:55.986Z,7.13
2022-08-19T15:16:28.661Z,7.83
2022-08-19T15:18:03.349Z,8.10
2022-08-19T15:19:36.789Z,8.10
2022-08-19T15:21:08.488Z,8.37
2022-08-19T15:22:40.827Z,7.83
2022-08-19T15:24:12.562Z,7.60
2022-08-19T15:25:44.565Z,13.60
2022-08-19T15:27:16.247Z,14.60
2022-08-19T15:28:48.000Z,16.33
2022-08-19T15:30:26.459Z,20.23
2022-08-19T15:31:59.264Z,21.55
2022-08-19T15:33:37.325Z,18.67
2022-08-19T15:35:09.106Z,16.10
2022-08-19T15:36:41.134Z,12.10
2022-08-19T15:38:16.730Z,10.33
2022-08-19T15:39:48.524Z,9.77
2022-08-19T15:41:30.458Z,7.60
2022-08-19T15:43:02.497Z,7.10
2022-08-19T15:44:34.878Z,6.20
2022-08-19T15:46:06.999Z,6.60
2022-08-19T15:47:39.802Z,6.27
2022-08-19T15:49:13.823Z,6.27
2022-08-19T15:50:48.234Z,5.97
2022-08-19T15:52:21.586Z,5.37
2022-08-19T15:53:53.691Z,7.10
2022-08-19T15:55:35.077Z,7.50
2022-08-19T15:57:21.831Z,6.43
2022-08-19T15:59:11.873Z,7.33
2022-08-19T16:01:02.169Z,7.60
2022-08-19T16:02:53.652Z,7.27
2022-08-19T16:04:44.161Z,7.30
2022-08-19T16:06:27.927Z,10.47
2022-08-19T16:08:00.127Z,11.77
2022-08-19T16:09:32.671Z,14.70
2022-08-19T16:11:04.763Z,12.60
2022-08-19T16:12:36.631Z,11.90
2022-08-19T16:14:09.397Z,9.23
2022-08-19T16:15:42.970Z,8.57
2022-08-19T16:17:14.783Z,5.63
2022-08-19T16:18:47.144Z,5.50
2022-08-19T16:20:21.891Z,4.90
2022-08-19T16:21:57.016Z,4.37
2022-08-19T16:23:28.989Z,4.13
2022-08-19T16:25:00.905Z,4.50
2022-08-19T16:26:34.751Z,5.07
2022-08-19T16:28:08.627Z,4.30
2022-08-19T16:29:40.588Z,3.60
2022-08-19T16:31:14.141Z,4.10
2022-08-19T16:32:46.011Z,4.17
2022-08-19T16:34:17.755Z,5.20
2022-08-19T16:35:56.071Z,9.07
2022-08-19T16:37:33.867Z,12.23
2022-08-19T16:39:05.642Z,12.10
2022-08-19T16:40:37.372Z,9.67
2022-08-19T16:42:10.484Z,8.93
2022-08-19T16:43:42.551Z,8.07
2022-08-19T16:45:14.331Z,6.13
2022-08-19T16:46:47.223Z,5.93
2022-08-19T16:48:30.795Z,6.33
2022-08-19T16:50:02.972Z,6.10
2022-08-19T16:51:34.766Z,5.20
2022-08-19T16:53:09.703Z,5.10
2022-08-19T16:54:41.771Z,4.27
2022-08-19T16:56:15.850Z,4.57
2022-08-19T16:57:47.702Z,4.43
2022-08-19T16:59:19.520Z,4.13
2022-08-19T17:00:52.750Z,3.60
2022-08-19T17:02:29.561Z,4.57
2022-08-19T17:04:02.414Z,4.50
2022-08-19T17:05:34.113Z,4.57
2022-08-19T17:07:06.202Z,3.97
2022-08-19T17:08:37.918Z,4.07
2022-08-19T17:10:09.967Z,4.80
2022-08-19T17:11:41.788Z,4.70
2022-08-19T17:13:16.547Z,4.30
2022-08-19T17:14:48.992Z,4.70
2022-08-19T17:16:24.848Z,4.37
2022-08-19T17:18:00.422Z,4.33
2022-08-19T17:19:32.113Z,4.20
2022-08-19T17:21:04.395Z,4.00
2022-08-19T17:22:37.066Z,4.67
2022-08-19T17:24:09.086Z,4.50
2022-08-19T17:25:41.023Z,4.50
2022-08-19T17:27:12.831Z,3.43
2022-08-19T17:28:45.728Z,3.90
2022-08-19T17:30:18.442Z,3.80
2022-08-19T17:31:50.164Z,4.30
2022-08-19T17:33:21.979Z,4.37
2022-08-19T17:34:56.536Z,4.30
2022-08-19T17:36:30.451Z,4.20
2022-08-19T17:38:07.922Z,4.00
2022-08-19T17:39:41.612Z,4.13
2022-08-19T17:41:14.083Z,3.90
2022-08-19T17:42:46.024Z,4.20
2022-08-19T17:44:18.749Z,4.37
2022-08-19T17:45:50.501Z,3.73
2022-08-19T17:47:22.235Z,3.90
2022-08-19T17:48:57.147Z,4.37
2022-08-19T17:50:30.756Z,3.77
2022-08-19T17:52:03.859Z,4.20
2022-08-19T17:53:37.878Z,4.10
2022-08-19T17:55:10.319Z,3.70
2022-08-19T17:56:43.006Z,3.77
2022-08-19T17:58:14.847Z,4.10
2022-08-19T17:59:48.487Z,4.40
2022-08-19T18:01:20.358Z,4.53
2022-08-19T18:02:58.065Z,3.90
2022-08-19T18:04:29.858Z,4.17
2022-08-19T18:06:01.576Z,4.53
2022-08-19T18:07:34.292Z,4.40
2022-08-19T18:09:08.070Z,4.93
2022-08-19T18:10:40.153Z,5.60
2022-08-19T18:12:13.089Z,4.43
2022-08-19T18:13:45.086Z,4.67
2022-08-19T18:15:17.991Z,4.90
2022-08-19T18:16:50.412Z,5.33
2022-08-19T18:18:22.935Z,6.63
2022-08-19T18:19:54.711Z,6.43
2022-08-19T18:21:31.517Z,6.63
2022-08-19T18:23:44.598Z,7.50
2022-08-19T18:24:57.395Z,10.67
2022-08-19T18:26:30.084Z,12.20
2022-08-19T18:28:02.000Z,9.90
2022-08-19T18:29:34.061Z,7.97
2022-08-19T18:31:07.457Z,7.63
2022-08-19T18:32:42.091Z,5.90
2022-08-19T18:34:15.091Z,5.17
2022-08-19T18:35:49.016Z,5.20
2022-08-19T18:37:20.913Z,5.20
2022-08-19T18:39:11.073Z,7.93
2022-08-19T18:41:02.517Z,10.00
2022-08-19T18:42:53.138Z,9.13
2022-08-19T18:44:43.460Z,8.60
2022-08-19T18:46:36.826Z,6.90
2022-08-19T18:48:28.257Z,6.00
2022-08-19T18:50:07.373Z,6.23
2022-08-19T18:51:39.157Z,5.43
2022-08-19T18:53:10.992Z,5.77
2022-08-19T18:54:44.125Z,5.87
2022-08-19T18:56:18.372Z,5.60
2022-08-19T18:57:51.355Z,5.90
2022-08-19T18:59:28.738Z,5.73
2022-08-19T19:01:29.580Z,5.23
2022-08-19T19:03:01.956Z,6.30
2022-08-19T19:04:37.412Z,5.80
2022-08-19T19:06:09.341Z,6.07
2022-08-19T19:07:41.915Z,6.23
2022-08-19T19:09:17.542Z,5.80
2022-08-19T19:10:50.384Z,6.30
2022-08-19T19:12:28.870Z,6.40
2022-08-19T19:14:02.452Z,5.80
2022-08-19T19:15:34.865Z,5.70
2022-08-19T19:17:11.119Z,5.20
2022-08-19T19:18:42.796Z,4.80
2022-08-19T19:20:14.617Z,5.50
2022-08-19T19:21:49.354Z,5.70
2022-08-19T19:23:21.318Z,5.87
2022-08-19T19:24:57.307Z,5.90
2022-08-19T19:26:29.123Z,5.10
2022-08-19T19:28:01.159Z,5.23
2022-08-19T19:29:36.516Z,4.17
2022-08-19T19:31:08.432Z,3.97
2022-08-19T19:32:40.891Z,4.70
2022-08-19T19:34:15.486Z,4.10
2022-08-19T19:36:02.066Z,4.20
2022-08-19T19:37:33.904Z,4.30
2022-08-19T19:39:06.615Z,3.93
2022-08-19T19:40:38.303Z,3.93
2022-08-19T19:42:12.391Z,4.17
2022-08-19T19:43:44.410Z,4.00
2022-08-19T19:45:16.861Z,4.13
2022-08-19T19:46:48.742Z,4.00
2022-08-19T19:48:20.504Z,4.30
2022-08-19T19:50:13.230Z,4.47
2022-08-19T19:51:44.598Z,4.33
2022-08-19T19:53:17.349Z,4.77
2022-08-19T19:54:49.237Z,4.57
2022-08-19T19:56:22.384Z,4.90
2022-08-19T19:57:57.549Z,4.63
2022-08-19T19:59:29.369Z,4.60
2022-08-19T20:01:03.855Z,5.40
2022-08-19T20:02:46.649Z,5.60
2022-08-19T20:04:21.400Z,5.20
2022-08-19T20:05:53.150Z,5.40
2022-08-19T20:07:48.146Z,5.43
2022-08-19T20:09:20.101Z,5.53
2022-08-19T20:10:51.784Z,5.93
2022-08-19T20:12:23.541Z,5.77
2022-08-19T20:13:55.256Z,6.93
2022-08-19T20:15:27.286Z,7.10
2022-08-19T20:17:00.230Z,6.87
2022-08-19T20:18:31.958Z,7.00
2022-08-19T20:20:04.126Z,7.77
2022-08-19T20:21:36.264Z,7.73
2022-08-19T20:23:08.496Z,7.77
2022-08-19T20:24:42.252Z,7.30
2022-08-19T20:26:32.343Z,7.97
2022-08-19T20:28:05.701Z,6.97
2022-08-19T20:29:41.731Z,6.80
2022-08-19T20:31:17.554Z,7.10
2022-08-19T20:32:50.021Z,6.73
2022-08-19T20:34:22.015Z,5.77
2022-08-19T20:35:53.774Z,6.90
2022-08-19T20:37:26.002Z,6.13
2022-08-19T20:38:59.393Z,5.80
2022-08-19T20:40:32.213Z,6.03
2022-08-19T20:42:04.124Z,5.37
2022-08-19T20:43:36.030Z,5.50
2022-08-19T20:45:32.334Z,6.23
2022-08-19T20:47:05.258Z,7.00
2022-08-19T20:48:39.685Z,6.07
2022-08-19T20:50:11.998Z,5.40
2022-08-19T20:51:46.527Z,5.73